sensor_id;sensor_type;location;lat;lon;timestamp;pressure;altitude;pressure_sealevel;temperature;humidity
82006;BME280;71529;47.484;19.064;2023-12-20T00:02:18;100656.75;;;1.48;82.55
82006;BME280;71529;47.484;19.064;2023-12-20T00:04:46;100649.38;;;1.56;84.08
82006;BME280;71529;47.484;19.064;2023-12-20T00:07:15;100642.72;;;1.66;82.39
82006;BME280;71529;47.484;19.064;2023-12-20T00:09:43;100646.88;;;1.72;83.02
82006;BME280;71529;47.484;19.064;2023-12-20T00:12:12;100651.25;;;1.71;85.24
82006;BME280;71529;47.484;19.064;2023-12-20T00:14:41;100638.41;;;1.47;79.26
82006;BME280;71529;47.484;19.064;2023-12-20T00:17:09;100637.84;;;1.40;85.01
82006;BME280;71529;47.484;19.064;2023-12-20T00:19:37;100640.06;;;1.49;83.85
82006;BME280;71529;47.484;19.064;2023-12-20T00:22:05;100633.41;;;1.41;81.71
82006;BME280;71529;47.484;19.064;2023-12-20T00:24:34;100633.97;;;1.66;82.35
82006;BME280;71529;47.484;19.064;2023-12-20T00:27:02;100626.31;;;1.61;81.93
82006;BME280;71529;47.484;19.064;2023-12-20T00:29:32;100621.91;;;1.43;80.55
82006;BME280;71529;47.484;19.064;2023-12-20T00:32:00;100622.44;;;1.68;87.15
82006;BME280;71529;47.484;19.064;2023-12-20T00:34:28;100616.75;;;1.59;86.45
82006;BME280;71529;47.484;19.064;2023-12-20T00:36:57;100607.97;;;1.77;85.06
82006;BME280;71529;47.484;19.064;2023-12-20T00:39:25;100600.91;;;1.77;84.16
82006;BME280;71529;47.484;19.064;2023-12-20T00:41:53;100604.13;;;1.84;83.79
82006;BME280;71529;47.484;19.064;2023-12-20T00:44:22;100594.41;;;1.67;82.69
82006;BME280;71529;47.484;19.064;2023-12-20T00:46:51;100589.84;;;1.88;83.91
82006;BME280;71529;47.484;19.064;2023-12-20T00:49:19;100579.44;;;2.03;86.69
82006;BME280;71529;47.484;19.064;2023-12-20T00:51:47;100569.81;;;1.85;83.33
82006;BME280;71529;47.484;19.064;2023-12-20T00:54:17;100573.06;;;1.90;79.34
82006;BME280;71529;47.484;19.064;2023-12-20T00:56:46;100569.38;;;1.76;81.08
82006;BME280;71529;47.484;19.064;2023-12-20T00:59:14;100578.31;;;1.73;79.97
82006;BME280;71529;47.484;19.064;2023-12-20T01:01:42;100575.88;;;1.69;81.15
82006;BME280;71529;47.484;19.064;2023-12-20T01:04:12;100563.03;;;1.63;81.46
82006;BME280;71529;47.484;19.064;2023-12-20T01:06:40;100575.69;;;1.55;83.47
82006;BME280;71529;47.484;19.064;2023-12-20T01:09:09;100557.41;;;1.70;83.77
82006;BME280;71529;47.484;19.064;2023-12-20T01:11:37;100555.06;;;1.64;80.76
82006;BME280;71529;47.484;19.064;2023-12-20T01:14:05;100555.59;;;1.71;83.25
82006;BME280;71529;47.484;19.064;2023-12-20T01:16:33;100551.97;;;1.73;82.63
82006;BME280;71529;47.484;19.064;2023-12-20T01:19:02;100548.09;;;1.63;82.41
82006;BME280;71529;47.484;19.064;2023-12-20T01:21:32;100545.66;;;1.59;84.83
82006;BME280;71529;47.484;19.064;2023-12-20T01:24:00;100543.94;;;1.22;78.83
82006;BME280;71529;47.484;19.064;2023-12-20T01:26:28;100542.88;;;1.07;80.21
82006;BME280;71529;47.484;19.064;2023-12-20T01:28:56;100532.75;;;1.36;86.63
82006;BME280;71529;47.484;19.064;2023-12-20T01:31:24;100530.41;;;1.48;85.93
82006;BME280;71529;47.484;19.064;2023-12-20T01:33:54;100527.59;;;1.51;84.46
82006;BME280;71529;47.484;19.064;2023-12-20T01:36:23;100527.22;;;1.42;83.09
82006;BME280;71529;47.484;19.064;2023-12-20T01:38:52;100527.09;;;1.26;80.72
82006;BME280;71529;47.484;19.064;2023-12-20T01:41:21;100521.41;;;1.35;82.23
82006;BME280;71529;47.484;19.064;2023-12-20T01:43:49;100512.84;;;1.30;82.97
82006;BME280;71529;47.484;19.064;2023-12-20T01:46:19;100509.16;;;1.34;83.66
82006;BME280;71529;47.484;19.064;2023-12-20T01:48:48;100498.81;;;1.48;83.26
82006;BME280;71529;47.484;19.064;2023-12-20T01:51:17;100506.00;;;1.45;84.42
82006;BME280;71529;47.484;19.064;2023-12-20T01:53:46;100503.09;;;1.32;79.36
82006;BME280;71529;47.484;19.064;2023-12-20T01:56:16;100489.22;;;1.47;85.74
82006;BME280;71529;47.484;19.064;2023-12-20T01:58:46;100479.81;;;1.06;80.23
82006;BME280;71529;47.484;19.064;2023-12-20T02:01:15;100477.34;;;1.03;82.72
82006;BME280;71529;47.484;19.064;2023-12-20T02:03:44;100466.69;;;1.23;85.19
82006;BME280;71529;47.484;19.064;2023-12-20T02:06:13;100467.09;;;1.16;80.26
82006;BME280;71529;47.484;19.064;2023-12-20T02:08:41;100463.13;;;1.07;80.42
82006;BME280;71529;47.484;19.064;2023-12-20T02:11:10;100446.84;;;0.99;79.92
82006;BME280;71529;47.484;19.064;2023-12-20T02:13:39;100454.22;;;1.09;82.31
82006;BME280;71529;47.484;19.064;2023-12-20T02:16:08;100449.31;;;1.21;82.52
82006;BME280;71529;47.484;19.064;2023-12-20T02:18:36;100444.59;;;1.27;82.41
82006;BME280;71529;47.484;19.064;2023-12-20T02:21:05;100440.19;;;1.28;81.63
82006;BME280;71529;47.484;19.064;2023-12-20T02:23:34;100431.66;;;1.40;86.94
82006;BME280;71529;47.484;19.064;2023-12-20T02:26:03;100429.66;;;1.62;86.86
82006;BME280;71529;47.484;19.064;2023-12-20T02:28:33;100423.41;;;1.47;83.88
82006;BME280;71529;47.484;19.064;2023-12-20T02:31:03;100424.78;;;1.54;84.88
82006;BME280;71529;47.484;19.064;2023-12-20T02:33:31;100418.38;;;1.60;85.43
82006;BME280;71529;47.484;19.064;2023-12-20T02:35:59;100424.25;;;1.65;85.31
82006;BME280;71529;47.484;19.064;2023-12-20T02:38:27;100415.78;;;1.58;80.31
82006;BME280;71529;47.484;19.064;2023-12-20T02:40:57;100415.41;;;1.49;80.74
82006;BME280;71529;47.484;19.064;2023-12-20T02:43:25;100416.28;;;1.49;83.26
82006;BME280;71529;47.484;19.064;2023-12-20T02:45:54;100404.66;;;1.36;79.54
82006;BME280;71529;47.484;19.064;2023-12-20T02:48:22;100403.16;;;1.48;82.90
82006;BME280;71529;47.484;19.064;2023-12-20T02:50:51;100395.03;;;1.18;80.48
82006;BME280;71529;47.484;19.064;2023-12-20T02:53:19;100396.81;;;1.52;86.88
82006;BME280;71529;47.484;19.064;2023-12-20T02:55:47;100384.81;;;1.46;82.54
82006;BME280;71529;47.484;19.064;2023-12-20T02:58:17;100381.56;;;1.58;83.99
82006;BME280;71529;47.484;19.064;2023-12-20T03:00:46;100382.81;;;1.68;85.68
82006;BME280;71529;47.484;19.064;2023-12-20T03:03:14;100381.50;;;1.60;81.66
82006;BME280;71529;47.484;19.064;2023-12-20T03:05:42;100385.53;;;1.50;82.37
82006;BME280;71529;47.484;19.064;2023-12-20T03:08:11;100389.31;;;1.61;83.31
82006;BME280;71529;47.484;19.064;2023-12-20T03:10:39;100382.94;;;1.65;85.27
82006;BME280;71529;47.484;19.064;2023-12-20T03:13:08;100382.06;;;1.49;80.84
82006;BME280;71529;47.484;19.064;2023-12-20T03:15:38;100375.09;;;1.31;80.02
82006;BME280;71529;47.484;19.064;2023-12-20T03:18:06;100376.03;;;1.47;84.63
82006;BME280;71529;47.484;19.064;2023-12-20T03:20:34;100391.81;;;1.47;83.33
82006;BME280;71529;47.484;19.064;2023-12-20T03:23:03;100383.44;;;1.22;80.41
82006;BME280;71529;47.484;19.064;2023-12-20T03:25:32;100380.41;;;1.12;81.87
82006;BME280;71529;47.484;19.064;2023-12-20T03:28:00;100387.53;;;1.28;85.85
82006;BME280;71529;47.484;19.064;2023-12-20T03:30:28;100382.72;;;1.36;82.75
82006;BME280;71529;47.484;19.064;2023-12-20T03:32:58;100384.28;;;1.40;85.43
82006;BME280;71529;47.484;19.064;2023-12-20T03:35:26;100386.06;;;1.39;82.20
82006;BME280;71529;47.484;19.064;2023-12-20T03:37:55;100384.22;;;1.41;83.78
82006;BME280;71529;47.484;19.064;2023-12-20T03:40:23;100390.50;;;1.56;85.30
82006;BME280;71529;47.484;19.064;2023-12-20T03:42:52;100382.91;;;1.67;83.76
82006;BME280;71529;47.484;19.064;2023-12-20T03:45:20;100388.84;;;1.70;84.23
82006;BME280;71529;47.484;19.064;2023-12-20T03:47:48;100384.94;;;1.77;84.02
82006;BME280;71529;47.484;19.064;2023-12-20T03:50:18;100382.66;;;1.71;84.70
82006;BME280;71529;47.484;19.064;2023-12-20T03:52:47;100385.44;;;1.68;84.84
82006;BME280;71529;47.484;19.064;2023-12-20T03:55:15;100386.59;;;1.63;82.37
82006;BME280;71529;47.484;19.064;2023-12-20T03:57:44;100381.19;;;1.66;84.41
82006;BME280;71529;47.484;19.064;2023-12-20T04:00:13;100375.88;;;1.83;85.28
82006;BME280;71529;47.484;19.064;2023-12-20T04:02:41;100370.50;;;2.01;85.25
82006;BME280;71529;47.484;19.064;2023-12-20T04:05:10;100373.06;;;1.70;80.67
82006;BME280;71529;47.484;19.064;2023-12-20T04:07:40;100373.72;;;1.91;84.68
82006;BME280;71529;47.484;19.064;2023-12-20T04:10:09;100356.66;;;1.81;80.46
82006;BME280;71529;47.484;19.064;2023-12-20T04:12:37;100359.81;;;1.72;79.99
82006;BME280;71529;47.484;19.064;2023-12-20T04:15:06;100361.88;;;1.82;83.10
82006;BME280;71529;47.484;19.064;2023-12-20T04:17:36;100358.56;;;1.62;81.45
82006;BME280;71529;47.484;19.064;2023-12-20T04:20:06;100365.38;;;1.66;85.35
82006;BME280;71529;47.484;19.064;2023-12-20T04:22:35;100363.13;;;1.58;84.09
82006;BME280;71529;47.484;19.064;2023-12-20T04:25:05;100362.06;;;1.62;83.60
82006;BME280;71529;47.484;19.064;2023-12-20T04:27:33;100355.38;;;1.72;84.21
82006;BME280;71529;47.484;19.064;2023-12-20T04:30:02;100348.84;;;1.79;83.47
82006;BME280;71529;47.484;19.064;2023-12-20T04:32:30;100339.84;;;1.83;85.62
82006;BME280;71529;47.484;19.064;2023-12-20T04:34:59;100334.34;;;1.88;84.87
82006;BME280;71529;47.484;19.064;2023-12-20T04:37:28;100332.19;;;1.63;84.30
82006;BME280;71529;47.484;19.064;2023-12-20T04:39:56;100330.91;;;1.70;82.89
82006;BME280;71529;47.484;19.064;2023-12-20T04:42:25;100329.41;;;1.32;79.82
82006;BME280;71529;47.484;19.064;2023-12-20T04:44:54;100314.53;;;1.48;82.58
82006;BME280;71529;47.484;19.064;2023-12-20T04:47:22;100323.19;;;1.50;85.89
82006;BME280;71529;47.484;19.064;2023-12-20T04:49:50;100312.38;;;1.56;82.77
82006;BME280;71529;47.484;19.064;2023-12-20T04:52:19;100311.53;;;1.71;84.68
82006;BME280;71529;47.484;19.064;2023-12-20T04:54:47;100298.94;;;1.61;82.94
82006;BME280;71529;47.484;19.064;2023-12-20T04:57:15;100291.44;;;1.70;82.28
82006;BME280;71529;47.484;19.064;2023-12-20T04:59:45;100283.47;;;1.55;80.91
82006;BME280;71529;47.484;19.064;2023-12-20T05:02:13;100285.88;;;1.59;82.98
82006;BME280;71529;47.484;19.064;2023-12-20T05:04:42;100275.94;;;1.64;83.51
82006;BME280;71529;47.484;19.064;2023-12-20T05:07:10;100281.81;;;1.69;84.91
82006;BME280;71529;47.484;19.064;2023-12-20T05:09:38;100273.63;;;1.58;79.87
82006;BME280;71529;47.484;19.064;2023-12-20T05:12:07;100272.31;;;1.67;83.91
82006;BME280;71529;47.484;19.064;2023-12-20T05:14:35;100274.72;;;1.54;83.59
82006;BME280;71529;47.484;19.064;2023-12-20T05:17:05;100267.25;;;1.62;82.83
82006;BME280;71529;47.484;19.064;2023-12-20T05:19:33;100272.22;;;1.68;84.47
82006;BME280;71529;47.484;19.064;2023-12-20T05:22:03;100265.66;;;1.60;81.58
82006;BME280;71529;47.484;19.064;2023-12-20T05:24:31;100261.31;;;1.59;80.70
82006;BME280;71529;47.484;19.064;2023-12-20T05:27:00;100253.25;;;1.77;85.59
82006;BME280;71529;47.484;19.064;2023-12-20T05:29:28;100267.63;;;1.72;84.63
82006;BME280;71529;47.484;19.064;2023-12-20T05:31:58;100267.88;;;1.67;83.02
82006;BME280;71529;47.484;19.064;2023-12-20T05:34:27;100284.72;;;1.48;82.52
82006;BME280;71529;47.484;19.064;2023-12-20T05:36:57;100297.00;;;1.64;84.59
82006;BME280;71529;47.484;19.064;2023-12-20T05:39:25;100303.56;;;1.73;84.77
82006;BME280;71529;47.484;19.064;2023-12-20T05:41:53;100292.25;;;1.71;82.93
82006;BME280;71529;47.484;19.064;2023-12-20T05:44:22;100285.22;;;1.71;84.09
82006;BME280;71529;47.484;19.064;2023-12-20T05:46:50;100274.59;;;1.73;84.92
82006;BME280;71529;47.484;19.064;2023-12-20T05:49:18;100274.81;;;1.53;81.68
82006;BME280;71529;47.484;19.064;2023-12-20T05:51:48;100263.47;;;1.68;83.86
82006;BME280;71529;47.484;19.064;2023-12-20T05:54:18;100263.84;;;1.60;81.57
82006;BME280;71529;47.484;19.064;2023-12-20T05:56:46;100258.44;;;1.63;80.67
82006;BME280;71529;47.484;19.064;2023-12-20T05:59:15;100239.59;;;1.71;85.21
82006;BME280;71529;47.484;19.064;2023-12-20T06:01:43;100249.34;;;1.69;82.44
82006;BME280;71529;47.484;19.064;2023-12-20T06:04:12;100242.59;;;1.80;81.30
82006;BME280;71529;47.484;19.064;2023-12-20T06:06:41;100236.28;;;1.83;82.71
82006;BME280;71529;47.484;19.064;2023-12-20T06:09:11;100238.41;;;1.92;84.31
82006;BME280;71529;47.484;19.064;2023-12-20T06:11:39;100235.69;;;1.93;83.65
82006;BME280;71529;47.484;19.064;2023-12-20T06:14:07;100230.00;;;1.85;82.41
82006;BME280;71529;47.484;19.064;2023-12-20T06:16:36;100222.69;;;2.06;84.54
82006;BME280;71529;47.484;19.064;2023-12-20T06:19:04;100218.00;;;2.11;80.85
82006;BME280;71529;47.484;19.064;2023-12-20T06:21:32;100226.50;;;2.16;82.61
82006;BME280;71529;47.484;19.064;2023-12-20T06:24:01;100232.56;;;2.02;81.74
82006;BME280;71529;47.484;19.064;2023-12-20T06:26:31;100229.25;;;1.99;81.93
82006;BME280;71529;47.484;19.064;2023-12-20T06:28:59;100228.47;;;2.12;83.99
82006;BME280;71529;47.484;19.064;2023-12-20T06:31:27;100223.56;;;2.06;80.87
82006;BME280;71529;47.484;19.064;2023-12-20T06:33:56;100227.19;;;2.04;81.73
82006;BME280;71529;47.484;19.064;2023-12-20T06:36:27;100233.66;;;1.98;82.54
82006;BME280;71529;47.484;19.064;2023-12-20T06:38:55;100238.91;;;1.98;84.89
82006;BME280;71529;47.484;19.064;2023-12-20T06:41:23;100242.81;;;1.91;84.27
82006;BME280;71529;47.484;19.064;2023-12-20T06:43:53;100261.72;;;2.15;85.66
82006;BME280;71529;47.484;19.064;2023-12-20T06:46:22;100270.38;;;1.86;83.08
82006;BME280;71529;47.484;19.064;2023-12-20T06:48:50;100274.28;;;1.79;82.78
82006;BME280;71529;47.484;19.064;2023-12-20T06:51:18;100284.88;;;1.77;83.25
82006;BME280;71529;47.484;19.064;2023-12-20T06:53:47;100289.31;;;1.77;84.03
82006;BME280;71529;47.484;19.064;2023-12-20T06:56:15;100284.81;;;1.79;83.67
82006;BME280;71529;47.484;19.064;2023-12-20T06:58:46;100293.56;;;1.95;83.21
82006;BME280;71529;47.484;19.064;2023-12-20T07:01:16;100293.09;;;1.71;81.93
82006;BME280;71529;47.484;19.064;2023-12-20T07:03:45;100298.81;;;1.79;81.87
82006;BME280;71529;47.484;19.064;2023-12-20T07:06:14;100285.81;;;1.92;81.89
82006;BME280;71529;47.484;19.064;2023-12-20T07:08:44;100287.09;;;1.85;81.33
82006;BME280;71529;47.484;19.064;2023-12-20T07:11:12;100285.34;;;2.01;83.08
82006;BME280;71529;47.484;19.064;2023-12-20T07:13:40;100281.91;;;1.83;82.80
82006;BME280;71529;47.484;19.064;2023-12-20T07:16:09;100269.09;;;1.93;85.92
82006;BME280;71529;47.484;19.064;2023-12-20T07:18:38;100269.94;;;1.93;84.54
82006;BME280;71529;47.484;19.064;2023-12-20T07:21:06;100275.19;;;1.93;82.89
82006;BME280;71529;47.484;19.064;2023-12-20T07:23:35;100267.31;;;2.09;81.20
82006;BME280;71529;47.484;19.064;2023-12-20T07:26:03;100271.16;;;2.03;80.71
82006;BME280;71529;47.484;19.064;2023-12-20T07:28:32;100268.25;;;1.92;81.04
82006;BME280;71529;47.484;19.064;2023-12-20T07:31:00;100271.66;;;2.10;84.12
82006;BME280;71529;47.484;19.064;2023-12-20T07:33:29;100268.53;;;2.03;79.00
82006;BME280;71529;47.484;19.064;2023-12-20T07:36:07;100281.94;;;2.14;84.17
82006;BME280;71529;47.484;19.064;2023-12-20T07:38:35;100284.06;;;2.23;85.02
82006;BME280;71529;47.484;19.064;2023-12-20T07:41:03;100282.69;;;2.16;82.08
82006;BME280;71529;47.484;19.064;2023-12-20T07:43:32;100289.94;;;2.13;80.64
82006;BME280;71529;47.484;19.064;2023-12-20T07:46:04;100279.56;;;2.10;81.77
82006;BME280;71529;47.484;19.064;2023-12-20T07:48:33;100280.34;;;2.12;84.98
82006;BME280;71529;47.484;19.064;2023-12-20T07:51:02;100278.88;;;2.22;84.61
82006;BME280;71529;47.484;19.064;2023-12-20T07:53:33;100278.69;;;2.09;82.52
82006;BME280;71529;47.484;19.064;2023-12-20T07:56:01;100266.22;;;2.13;81.91
82006;BME280;71529;47.484;19.064;2023-12-20T07:58:29;100263.66;;;2.11;80.49
82006;BME280;71529;47.484;19.064;2023-12-20T08:01:16;100258.91;;;2.02;80.56
82006;BME280;71529;47.484;19.064;2023-12-20T08:03:46;100258.88;;;1.87;81.03
82006;BME280;71529;47.484;19.064;2023-12-20T08:06:14;100249.13;;;2.04;81.45
82006;BME280;71529;47.484;19.064;2023-12-20T08:08:45;100236.97;;;2.17;85.55
82006;BME280;71529;47.484;19.064;2023-12-20T08:11:27;100253.97;;;2.12;81.11
82006;BME280;71529;47.484;19.064;2023-12-20T08:13:55;100248.88;;;2.24;83.40
82006;BME280;71529;47.484;19.064;2023-12-20T08:16:23;100254.66;;;2.31;82.23
82006;BME280;71529;47.484;19.064;2023-12-20T08:18:52;100246.47;;;2.36;79.86
82006;BME280;71529;47.484;19.064;2023-12-20T08:21:20;100247.22;;;2.53;84.31
82006;BME280;71529;47.484;19.064;2023-12-20T08:23:51;100255.13;;;2.53;81.68
82006;BME280;71529;47.484;19.064;2023-12-20T08:26:19;100255.66;;;2.28;80.31
82006;BME280;71529;47.484;19.064;2023-12-20T08:28:49;100255.66;;;2.28;80.26
82006;BME280;71529;47.484;19.064;2023-12-20T08:31:18;100256.44;;;2.15;79.68
82006;BME280;71529;47.484;19.064;2023-12-20T08:33:48;100260.78;;;2.32;82.48
82006;BME280;71529;47.484;19.064;2023-12-20T08:36:17;100253.69;;;2.32;83.52
82006;BME280;71529;47.484;19.064;2023-12-20T08:38:46;100261.59;;;2.63;84.53
82006;BME280;71529;47.484;19.064;2023-12-20T08:41:16;100260.91;;;2.44;78.20
82006;BME280;71529;47.484;19.064;2023-12-20T08:43:45;100267.22;;;2.42;80.90
82006;BME280;71529;47.484;19.064;2023-12-20T08:46:14;100261.47;;;2.35;81.44
82006;BME280;71529;47.484;19.064;2023-12-20T08:48:42;100260.66;;;2.49;80.44
82006;BME280;71529;47.484;19.064;2023-12-20T08:51:13;100261.38;;;2.37;80.20
82006;BME280;71529;47.484;19.064;2023-12-20T08:53:41;100264.50;;;2.28;81.29
82006;BME280;71529;47.484;19.064;2023-12-20T08:56:12;100263.16;;;2.36;82.61
82006;BME280;71529;47.484;19.064;2023-12-20T08:58:41;100257.78;;;2.38;81.50
82006;BME280;71529;47.484;19.064;2023-12-20T09:01:10;100248.59;;;2.45;83.04
82006;BME280;71529;47.484;19.064;2023-12-20T09:03:38;100249.91;;;2.67;84.38
82006;BME280;71529;47.484;19.064;2023-12-20T09:06:07;100259.28;;;2.57;79.91
82006;BME280;71529;47.484;19.064;2023-12-20T09:08:35;100269.50;;;2.63;81.38
82006;BME280;71529;47.484;19.064;2023-12-20T09:11:03;100267.44;;;2.68;80.73
82006;BME280;71529;47.484;19.064;2023-12-20T09:13:32;100262.75;;;2.73;81.34
82006;BME280;71529;47.484;19.064;2023-12-20T09:16:03;100253.31;;;2.69;82.22
82006;BME280;71529;47.484;19.064;2023-12-20T09:18:31;100254.09;;;2.56;79.32
82006;BME280;71529;47.484;19.064;2023-12-20T09:20:59;100248.78;;;2.42;81.28
82006;BME280;71529;47.484;19.064;2023-12-20T09:23:27;100251.66;;;2.53;83.39
82006;BME280;71529;47.484;19.064;2023-12-20T09:25:55;100251.09;;;2.62;83.15
82006;BME280;71529;47.484;19.064;2023-12-20T09:28:24;100250.94;;;2.65;83.56
82006;BME280;71529;47.484;19.064;2023-12-20T09:30:52;100236.28;;;2.75;79.91
82006;BME280;71529;47.484;19.064;2023-12-20T09:33:22;100234.78;;;2.85;83.16
82006;BME280;71529;47.484;19.064;2023-12-20T09:35:51;100233.97;;;2.84;80.92
82006;BME280;71529;47.484;19.064;2023-12-20T09:38:20;100226.78;;;2.86;81.45
82006;BME280;71529;47.484;19.064;2023-12-20T09:40:49;100217.75;;;2.90;81.62
82006;BME280;71529;47.484;19.064;2023-12-20T09:43:19;100213.63;;;3.00;81.63
82006;BME280;71529;47.484;19.064;2023-12-20T09:45:48;100212.50;;;3.04;82.53
82006;BME280;71529;47.484;19.064;2023-12-20T09:48:19;100212.78;;;3.00;83.08
82006;BME280;71529;47.484;19.064;2023-12-20T09:50:49;100205.34;;;3.06;83.58
82006;BME280;71529;47.484;19.064;2023-12-20T09:53:21;100215.59;;;2.97;82.42
82006;BME280;71529;47.484;19.064;2023-12-20T09:55:58;100200.44;;;3.00;82.94
82006;BME280;71529;47.484;19.064;2023-12-20T09:58:27;100190.91;;;2.98;81.89
82006;BME280;71529;47.484;19.064;2023-12-20T10:00:56;100192.25;;;3.05;82.41
82006;BME280;71529;47.484;19.064;2023-12-20T10:03:25;100186.56;;;2.97;80.16
82006;BME280;71529;47.484;19.064;2023-12-20T10:05:57;100194.97;;;3.03;80.77
82006;BME280;71529;47.484;19.064;2023-12-20T10:08:26;100188.56;;;3.07;82.95
82006;BME280;71529;47.484;19.064;2023-12-20T10:10:54;100177.19;;;3.07;79.67
82006;BME280;71529;47.484;19.064;2023-12-20T10:13:25;100175.38;;;3.07;80.60
82006;BME280;71529;47.484;19.064;2023-12-20T10:15:54;100183.13;;;3.10;79.29
82006;BME280;71529;47.484;19.064;2023-12-20T10:18:23;100174.06;;;3.14;80.89
82006;BME280;71529;47.484;19.064;2023-12-20T10:21:05;100168.50;;;3.19;82.00
82006;BME280;71529;47.484;19.064;2023-12-20T10:23:34;100182.56;;;3.19;81.14
82006;BME280;71529;47.484;19.064;2023-12-20T10:26:02;100153.53;;;3.33;81.47
82006;BME280;71529;47.484;19.064;2023-12-20T10:28:33;100146.06;;;3.26;77.86
82006;BME280;71529;47.484;19.064;2023-12-20T10:31:02;100135.31;;;3.29;81.79
82006;BME280;71529;47.484;19.064;2023-12-20T10:33:31;100125.69;;;3.42;79.97
82006;BME280;71529;47.484;19.064;2023-12-20T10:36:00;100120.41;;;3.42;78.24
82006;BME280;71529;47.484;19.064;2023-12-20T10:38:31;100124.06;;;3.39;80.21
82006;BME280;71529;47.484;19.064;2023-12-20T10:41:01;100123.06;;;3.42;81.15
82006;BME280;71529;47.484;19.064;2023-12-20T10:43:32;100117.50;;;3.32;78.22
82006;BME280;71529;47.484;19.064;2023-12-20T10:46:03;100119.84;;;3.37;80.22
82006;BME280;71529;47.484;19.064;2023-12-20T10:48:32;100111.53;;;3.43;78.13
82006;BME280;71529;47.484;19.064;2023-12-20T10:51:01;100105.69;;;3.52;81.26
82006;BME280;71529;47.484;19.064;2023-12-20T10:53:32;100107.94;;;3.44;78.76
82006;BME280;71529;47.484;19.064;2023-12-20T10:56:04;100111.44;;;3.45;80.52
82006;BME280;71529;47.484;19.064;2023-12-20T10:58:35;100104.16;;;3.48;82.14
82006;BME280;71529;47.484;19.064;2023-12-20T11:01:08;100105.59;;;3.39;79.91
82006;BME280;71529;47.484;19.064;2023-12-20T11:03:36;100110.97;;;3.38;80.68
82006;BME280;71529;47.484;19.064;2023-12-20T11:06:16;100110.63;;;3.30;80.61
82006;BME280;71529;47.484;19.064;2023-12-20T11:08:53;100104.47;;;3.44;81.75
82006;BME280;71529;47.484;19.064;2023-12-20T11:11:40;100097.69;;;3.39;79.96
82006;BME280;71529;47.484;19.064;2023-12-20T11:14:15;100093.06;;;3.29;80.08
82006;BME280;71529;47.484;19.064;2023-12-20T11:16:45;100081.47;;;3.46;80.39
82006;BME280;71529;47.484;19.064;2023-12-20T11:19:21;100072.47;;;3.48;79.00
82006;BME280;71529;47.484;19.064;2023-12-20T11:21:50;100067.50;;;3.44;79.95
82006;BME280;71529;47.484;19.064;2023-12-20T11:24:23;100072.84;;;3.56;82.55
82006;BME280;71529;47.484;19.064;2023-12-20T11:26:55;100054.50;;;3.67;82.66
82006;BME280;71529;47.484;19.064;2023-12-20T11:29:34;100049.75;;;3.72;81.03
82006;BME280;71529;47.484;19.064;2023-12-20T11:32:03;100030.22;;;3.75;80.03
82006;BME280;71529;47.484;19.064;2023-12-20T11:34:53;100024.34;;;3.84;81.06
82006;BME280;71529;47.484;19.064;2023-12-20T11:37:28;100014.53;;;3.86;80.35
82006;BME280;71529;47.484;19.064;2023-12-20T11:40:02;100020.72;;;3.85;79.32
82006;BME280;71529;47.484;19.064;2023-12-20T11:42:32;100022.97;;;3.91;78.92
82006;BME280;71529;47.484;19.064;2023-12-20T11:45:02;100029.44;;;3.99;79.31
82006;BME280;71529;47.484;19.064;2023-12-20T11:47:31;100043.94;;;4.06;79.19
82006;BME280;71529;47.484;19.064;2023-12-20T11:49:59;100034.44;;;4.16;78.66
82006;BME280;71529;47.484;19.064;2023-12-20T11:52:30;100030.66;;;4.20;80.91
82006;BME280;71529;47.484;19.064;2023-12-20T11:55:00;100036.91;;;4.19;79.51
82006;BME280;71529;47.484;19.064;2023-12-20T11:57:29;100029.28;;;4.27;79.70
82006;BME280;71529;47.484;19.064;2023-12-20T11:59:58;100030.03;;;4.29;79.56
82006;BME280;71529;47.484;19.064;2023-12-20T12:02:26;100023.91;;;4.41;81.35
82006;BME280;71529;47.484;19.064;2023-12-20T12:04:55;100021.78;;;4.34;79.66
82006;BME280;71529;47.484;19.064;2023-12-20T12:07:25;100014.81;;;4.45;79.55
82006;BME280;71529;47.484;19.064;2023-12-20T12:09:54;100012.28;;;4.44;78.92
82006;BME280;71529;47.484;19.064;2023-12-20T12:12:23;100014.81;;;4.58;79.02
82006;BME280;71529;47.484;19.064;2023-12-20T12:14:52;99994.06;;;4.77;79.83
82006;BME280;71529;47.484;19.064;2023-12-20T12:17:21;100000.19;;;4.78;78.20
82006;BME280;71529;47.484;19.064;2023-12-20T12:19:49;99994.56;;;4.82;78.04
82006;BME280;71529;47.484;19.064;2023-12-20T12:22:17;99994.69;;;4.93;78.74
82006;BME280;71529;47.484;19.064;2023-12-20T12:24:47;100012.97;;;4.96;78.63
82006;BME280;71529;47.484;19.064;2023-12-20T12:27:16;100002.75;;;5.15;77.74
82006;BME280;71529;47.484;19.064;2023-12-20T12:32:39;100016.59;;;5.31;77.10
82006;BME280;71529;47.484;19.064;2023-12-20T12:35:09;100008.63;;;5.44;78.21
82006;BME280;71529;47.484;19.064;2023-12-20T12:37:38;100013.69;;;5.47;76.50
82006;BME280;71529;47.484;19.064;2023-12-20T12:40:09;100006.00;;;5.55;77.30
82006;BME280;71529;47.484;19.064;2023-12-20T12:42:38;100003.78;;;5.61;76.68
82006;BME280;71529;47.484;19.064;2023-12-20T12:45:08;100014.41;;;5.73;76.92
82006;BME280;71529;47.484;19.064;2023-12-20T12:47:36;100007.53;;;5.83;75.60
82006;BME280;71529;47.484;19.064;2023-12-20T12:50:07;100011.41;;;5.90;76.25
82006;BME280;71529;47.484;19.064;2023-12-20T12:52:35;100019.00;;;5.94;76.25
82006;BME280;71529;47.484;19.064;2023-12-20T12:55:05;100011.91;;;5.95;76.33
82006;BME280;71529;47.484;19.064;2023-12-20T12:57:33;100012.78;;;6.06;76.27
82006;BME280;71529;47.484;19.064;2023-12-20T13:00:02;100003.34;;;6.02;74.92
82006;BME280;71529;47.484;19.064;2023-12-20T13:02:31;100010.81;;;5.97;77.56
82006;BME280;71529;47.484;19.064;2023-12-20T13:04:59;100006.72;;;6.04;75.36